Verona, WI (53593)

6:37 AM CDT on July 26, 2016 (GMT -0500)
Verona | | Change Station

Elev 984 ft 42.99 °N, 89.56 °W | Updated 3 seconds ago

Partly Cloudy
Partly Cloudy
61.3 °F
Feels Like 61.3 °F
N
0.0
Wind Variable Wind from SE

Today
High -- | Low -- °F
--% Chance of Precip.
Yesterday
High -- | Low -- °F
Precip. -- in
Pressure 30.06 in
Visibility 10.0 miles
Clouds Few 25000 ft
Dew Point 60 °F
Humidity 91%
Rainfall 0.00 in
Snow Depth Not available.
5:43 AM 8:25 PM
Waning Gibbous, 55% visible
METAR KMSN 261053Z 00000KT 10SM FEW250 18/17 A3008 RMK AO2 SLP180 VIS NE 1 FIRST AUGMENTED OBS OF THE DAY T01780167
Pressure 30.06 in
Visibility 10.0 miles
Clouds Few 25000 ft
Dew Point 60 °F
Humidity 91%
Rainfall 0.00 in
Snow Depth Not available.
5:43 AM 8:25 PM
Waning Gibbous, 55% visible
METAR KMSN 261053Z 00000KT 10SM FEW250 18/17 A3008 RMK AO2 SLP180 VIS NE 1 FIRST AUGMENTED OBS OF THE DAY T01780167

10-Day Weather Forecast

Almanac

Astronomy

Jul. 26, 2016 Rise Set
Actual Time
Civil Twilight
Nautical Twilight
Astronomical Twilight
Moon
Length of Visible Light
Length of Day
Tomorrow will be .
, % of the Moon is Illuminated

Today's Extremes

State Highs State Lows

Community

WunderPhotos

Upload Photos

1,927,575 photos uploaded!

WunderBlog® & News

Nearby

Air Quality

  Air Quality AQ Index Pollutant
Not available.

Snow Depth

Station Depth Elevation

Earthquake Activity

City Distance Mag. Time & Date
Minimum magnitude displayed is 2.5.

Coastal Water Temperatures

Place Temperature

Stations

Nearby Weather Stations

Station Location Temp. Windchill Dew Point Humidity Wind Precip. Elev Updated Type
                   

Watches & Warnings

There are currently no watches in effect.